sensor_id;sensor_type;location;lat;lon;timestamp;P1;durP1;ratioP1;P2;durP2;ratioP2
72198;SDS011;60103;51.014;16.992;2023-07-16T02:09:23;10.90;;;4.70;;
72198;SDS011;60103;51.014;16.992;2023-07-16T02:11:53;9.70;;;4.50;;
72198;SDS011;60103;51.014;16.992;2023-07-16T02:14:22;8.20;;;4.30;;
72198;SDS011;60103;51.014;16.992;2023-07-16T02:16:51;8.80;;;4.80;;
72198;SDS011;60103;51.014;16.992;2023-07-16T02:19:20;9.80;;;4.80;;
72198;SDS011;60103;51.014;16.992;2023-07-16T02:21:49;9.70;;;4.20;;
72198;SDS011;60103;51.014;16.992;2023-07-16T02:24:18;9.50;;;4.10;;
72198;SDS011;60103;51.014;16.992;2023-07-16T02:26:47;10.00;;;4.10;;
72198;SDS011;60103;51.014;16.992;2023-07-16T02:29:15;9.70;;;4.40;;
72198;SDS011;60103;51.014;16.992;2023-07-16T02:31:45;9.50;;;4.40;;
72198;SDS011;60103;51.014;16.992;2023-07-16T02:34:14;9.90;;;4.20;;
72198;SDS011;60103;51.014;16.992;2023-07-16T02:36:43;8.30;;;4.20;;
72198;SDS011;60103;51.014;16.992;2023-07-16T02:39:14;10.30;;;4.70;;
72198;SDS011;60103;51.014;16.992;2023-07-16T02:41:43;8.80;;;3.80;;
72198;SDS011;60103;51.014;16.992;2023-07-16T02:44:12;10.00;;;3.90;;
72198;SDS011;60103;51.014;16.992;2023-07-16T02:46:42;8.50;;;4.40;;
72198;SDS011;60103;51.014;16.992;2023-07-16T02:49:12;10.70;;;4.20;;
72198;SDS011;60103;51.014;16.992;2023-07-16T02:51:41;9.20;;;4.40;;
72198;SDS011;60103;51.014;16.992;2023-07-16T02:54:10;10.20;;;4.50;;
72198;SDS011;60103;51.014;16.992;2023-07-16T02:56:39;9.60;;;4.90;;
72198;SDS011;60103;51.014;16.992;2023-07-16T02:59:08;10.50;;;5.10;;
72198;SDS011;60103;51.014;16.992;2023-07-16T03:01:36;10.70;;;4.90;;
72198;SDS011;60103;51.014;16.992;2023-07-16T03:04:05;8.90;;;4.70;;
72198;SDS011;60103;51.014;16.992;2023-07-16T03:06:34;8.80;;;4.70;;
72198;SDS011;60103;51.014;16.992;2023-07-16T03:09:03;9.30;;;4.70;;
72198;SDS011;60103;51.014;16.992;2023-07-16T03:11:32;8.90;;;4.80;;
72198;SDS011;60103;51.014;16.992;2023-07-16T03:14:01;11.50;;;4.20;;
72198;SDS011;60103;51.014;16.992;2023-07-16T03:16:30;10.30;;;4.80;;
72198;SDS011;60103;51.014;16.992;2023-07-16T03:18:58;11.90;;;4.40;;
72198;SDS011;60103;51.014;16.992;2023-07-16T03:21:30;8.70;;;4.50;;
72198;SDS011;60103;51.014;16.992;2023-07-16T03:23:59;9.50;;;4.50;;
72198;SDS011;60103;51.014;16.992;2023-07-16T03:26:28;8.60;;;4.60;;
72198;SDS011;60103;51.014;16.992;2023-07-16T03:28:58;8.70;;;4.40;;
72198;SDS011;60103;51.014;16.992;2023-07-16T03:31:27;10.20;;;4.90;;
72198;SDS011;60103;51.014;16.992;2023-07-16T03:33:58;9.80;;;4.70;;
72198;SDS011;60103;51.014;16.992;2023-07-16T03:36:29;10.60;;;4.50;;
72198;SDS011;60103;51.014;16.992;2023-07-16T03:38:58;8.60;;;4.30;;
72198;SDS011;60103;51.014;16.992;2023-07-16T03:41:27;10.10;;;4.50;;
72198;SDS011;60103;51.014;16.992;2023-07-16T03:43:57;11.30;;;4.70;;
72198;SDS011;60103;51.014;16.992;2023-07-16T03:46:25;9.90;;;4.80;;
72198;SDS011;60103;51.014;16.992;2023-07-16T03:48:54;9.50;;;4.50;;
72198;SDS011;60103;51.014;16.992;2023-07-16T03:51:23;9.90;;;4.90;;
72198;SDS011;60103;51.014;16.992;2023-07-16T03:53:54;11.30;;;4.00;;
72198;SDS011;60103;51.014;16.992;2023-07-16T03:56:24;8.40;;;4.50;;
72198;SDS011;60103;51.014;16.992;2023-07-16T03:58:53;11.20;;;4.70;;
72198;SDS011;60103;51.014;16.992;2023-07-16T04:01:22;8.90;;;4.40;;
72198;SDS011;60103;51.014;16.992;2023-07-16T04:03:51;9.90;;;4.60;;
72198;SDS011;60103;51.014;16.992;2023-07-16T04:06:21;9.80;;;3.90;;
72198;SDS011;60103;51.014;16.992;2023-07-16T04:08:50;9.10;;;4.50;;
72198;SDS011;60103;51.014;16.992;2023-07-16T04:11:19;10.80;;;4.10;;
72198;SDS011;60103;51.014;16.992;2023-07-16T04:13:48;10.80;;;4.10;;
72198;SDS011;60103;51.014;16.992;2023-07-16T04:16:16;9.90;;;4.50;;
72198;SDS011;60103;51.014;16.992;2023-07-16T04:18:46;10.40;;;4.70;;
72198;SDS011;60103;51.014;16.992;2023-07-16T04:21:14;9.20;;;4.50;;
72198;SDS011;60103;51.014;16.992;2023-07-16T04:23:43;9.80;;;4.40;;
72198;SDS011;60103;51.014;16.992;2023-07-16T04:26:12;9.30;;;4.30;;
72198;SDS011;60103;51.014;16.992;2023-07-16T04:28:41;10.40;;;4.20;;
72198;SDS011;60103;51.014;16.992;2023-07-16T04:31:10;12.50;;;4.30;;
72198;SDS011;60103;51.014;16.992;2023-07-16T04:33:39;9.60;;;4.20;;
72198;SDS011;60103;51.014;16.992;2023-07-16T04:36:07;12.00;;;4.80;;
72198;SDS011;60103;51.014;16.992;2023-07-16T04:38:36;10.20;;;4.10;;
72198;SDS011;60103;51.014;16.992;2023-07-16T04:41:08;10.00;;;3.90;;
72198;SDS011;60103;51.014;16.992;2023-07-16T04:43:37;9.60;;;3.30;;
72198;SDS011;60103;51.014;16.992;2023-07-16T04:46:06;8.70;;;4.10;;
72198;SDS011;60103;51.014;16.992;2023-07-16T04:48:35;7.30;;;3.40;;
72198;SDS011;60103;51.014;16.992;2023-07-16T04:51:04;8.60;;;3.30;;
72198;SDS011;60103;51.014;16.992;2023-07-16T04:53:33;8.90;;;3.60;;
72198;SDS011;60103;51.014;16.992;2023-07-16T04:56:01;8.10;;;3.60;;
72198;SDS011;60103;51.014;16.992;2023-07-16T04:58:30;9.10;;;3.30;;
72198;SDS011;60103;51.014;16.992;2023-07-16T05:00:59;9.50;;;3.60;;
72198;SDS011;60103;51.014;16.992;2023-07-16T05:03:28;7.80;;;3.20;;
72198;SDS011;60103;51.014;16.992;2023-07-16T05:05:57;8.90;;;3.40;;
72198;SDS011;60103;51.014;16.992;2023-07-16T05:08:26;12.10;;;3.70;;
72198;SDS011;60103;51.014;16.992;2023-07-16T05:10:55;9.10;;;3.40;;
72198;SDS011;60103;51.014;16.992;2023-07-16T05:13:24;10.10;;;3.50;;
72198;SDS011;60103;51.014;16.992;2023-07-16T05:15:53;8.60;;;3.40;;
72198;SDS011;60103;51.014;16.992;2023-07-16T05:18:22;10.40;;;3.10;;
72198;SDS011;60103;51.014;16.992;2023-07-16T05:20:51;7.60;;;3.00;;
72198;SDS011;60103;51.014;16.992;2023-07-16T05:23:20;8.30;;;3.50;;
72198;SDS011;60103;51.014;16.992;2023-07-16T05:25:49;9.70;;;2.90;;
72198;SDS011;60103;51.014;16.992;2023-07-16T05:28:18;8.00;;;2.90;;
72198;SDS011;60103;51.014;16.992;2023-07-16T05:30:47;9.80;;;2.80;;
72198;SDS011;60103;51.014;16.992;2023-07-16T05:33:16;7.50;;;2.70;;
72198;SDS011;60103;51.014;16.992;2023-07-16T05:35:48;8.40;;;2.80;;
72198;SDS011;60103;51.014;16.992;2023-07-16T05:38:17;7.80;;;2.80;;
72198;SDS011;60103;51.014;16.992;2023-07-16T05:40:47;7.30;;;2.50;;
72198;SDS011;60103;51.014;16.992;2023-07-16T05:43:16;9.10;;;2.50;;
72198;SDS011;60103;51.014;16.992;2023-07-16T05:45:44;8.20;;;2.40;;
72198;SDS011;60103;51.014;16.992;2023-07-16T05:48:13;7.80;;;2.50;;
72198;SDS011;60103;51.014;16.992;2023-07-16T05:50:43;7.40;;;3.00;;
72198;SDS011;60103;51.014;16.992;2023-07-16T05:53:13;8.20;;;2.70;;
72198;SDS011;60103;51.014;16.992;2023-07-16T05:55:42;7.60;;;2.70;;
72198;SDS011;60103;51.014;16.992;2023-07-16T05:58:11;7.90;;;2.60;;
72198;SDS011;60103;51.014;16.992;2023-07-16T06:00:40;8.20;;;3.00;;
72198;SDS011;60103;51.014;16.992;2023-07-16T06:03:09;7.10;;;3.00;;
72198;SDS011;60103;51.014;16.992;2023-07-16T06:05:38;10.60;;;3.60;;
72198;SDS011;60103;51.014;16.992;2023-07-16T06:08:07;7.10;;;2.50;;
72198;SDS011;60103;51.014;16.992;2023-07-16T06:10:36;8.50;;;3.00;;
72198;SDS011;60103;51.014;16.992;2023-07-16T06:13:05;7.00;;;2.40;;
72198;SDS011;60103;51.014;16.992;2023-07-16T06:15:34;7.00;;;2.70;;
72198;SDS011;60103;51.014;16.992;2023-07-16T06:18:04;6.90;;;2.60;;
72198;SDS011;60103;51.014;16.992;2023-07-16T06:20:33;7.70;;;2.60;;
72198;SDS011;60103;51.014;16.992;2023-07-16T06:23:02;6.80;;;2.30;;
72198;SDS011;60103;51.014;16.992;2023-07-16T06:25:32;6.90;;;2.40;;
72198;SDS011;60103;51.014;16.992;2023-07-16T06:28:01;7.60;;;2.30;;
72198;SDS011;60103;51.014;16.992;2023-07-16T06:30:31;8.10;;;2.20;;
72198;SDS011;60103;51.014;16.992;2023-07-16T06:33:01;6.80;;;2.10;;
72198;SDS011;60103;51.014;16.992;2023-07-16T06:35:29;5.30;;;1.90;;
72198;SDS011;60103;51.014;16.992;2023-07-16T06:37:58;7.50;;;2.20;;
72198;SDS011;60103;51.014;16.992;2023-07-16T06:40:28;6.90;;;2.60;;
72198;SDS011;60103;51.014;16.992;2023-07-16T06:42:57;6.80;;;1.80;;
72198;SDS011;60103;51.014;16.992;2023-07-16T06:45:26;6.60;;;2.30;;
72198;SDS011;60103;51.014;16.992;2023-07-16T06:47:55;7.10;;;2.10;;
72198;SDS011;60103;51.014;16.992;2023-07-16T06:51:36;6.40;;;2.40;;
72198;SDS011;60103;51.014;16.992;2023-07-16T06:54:05;6.40;;;2.20;;
72198;SDS011;60103;51.014;16.992;2023-07-16T06:56:35;6.20;;;1.70;;
72198;SDS011;60103;51.014;16.992;2023-07-16T06:59:04;6.20;;;1.90;;
72198;SDS011;60103;51.014;16.992;2023-07-16T07:01:33;8.60;;;2.10;;
72198;SDS011;60103;51.014;16.992;2023-07-16T07:04:02;6.30;;;2.00;;
72198;SDS011;60103;51.014;16.992;2023-07-16T07:06:31;6.60;;;1.90;;
72198;SDS011;60103;51.014;16.992;2023-07-16T07:09:00;6.40;;;2.10;;
72198;SDS011;60103;51.014;16.992;2023-07-16T07:11:29;7.80;;;2.40;;
72198;SDS011;60103;51.014;16.992;2023-07-16T07:13:58;5.00;;;1.70;;
72198;SDS011;60103;51.014;16.992;2023-07-16T07:16:27;6.80;;;1.80;;
72198;SDS011;60103;51.014;16.992;2023-07-16T07:18:57;8.00;;;1.90;;
72198;SDS011;60103;51.014;16.992;2023-07-16T07:21:26;5.40;;;1.80;;
72198;SDS011;60103;51.014;16.992;2023-07-16T07:23:55;6.40;;;1.80;;
72198;SDS011;60103;51.014;16.992;2023-07-16T07:26:24;5.50;;;1.80;;
72198;SDS011;60103;51.014;16.992;2023-07-16T07:28:54;6.50;;;2.10;;
72198;SDS011;60103;51.014;16.992;2023-07-16T07:31:23;6.30;;;2.00;;
72198;SDS011;60103;51.014;16.992;2023-07-16T07:33:53;6.80;;;1.80;;
72198;SDS011;60103;51.014;16.992;2023-07-16T07:36:22;6.20;;;1.60;;
72198;SDS011;60103;51.014;16.992;2023-07-16T07:38:52;5.90;;;1.90;;
72198;SDS011;60103;51.014;16.992;2023-07-16T07:41:22;6.80;;;1.90;;
72198;SDS011;60103;51.014;16.992;2023-07-16T07:43:51;5.50;;;1.80;;
72198;SDS011;60103;51.014;16.992;2023-07-16T07:46:22;5.40;;;1.70;;
72198;SDS011;60103;51.014;16.992;2023-07-16T07:48:51;6.70;;;1.90;;
72198;SDS011;60103;51.014;16.992;2023-07-16T07:51:20;6.50;;;1.70;;
72198;SDS011;60103;51.014;16.992;2023-07-16T07:53:49;6.90;;;1.80;;
72198;SDS011;60103;51.014;16.992;2023-07-16T07:56:17;7.50;;;1.80;;
72198;SDS011;60103;51.014;16.992;2023-07-16T07:58:47;6.90;;;2.00;;
72198;SDS011;60103;51.014;16.992;2023-07-16T08:01:16;6.10;;;1.80;;
72198;SDS011;60103;51.014;16.992;2023-07-16T08:03:45;7.20;;;1.70;;
72198;SDS011;60103;51.014;16.992;2023-07-16T08:06:14;7.30;;;1.80;;
72198;SDS011;60103;51.014;16.992;2023-07-16T08:08:44;6.50;;;1.70;;
72198;SDS011;60103;51.014;16.992;2023-07-16T08:11:13;5.90;;;1.40;;
72198;SDS011;60103;51.014;16.992;2023-07-16T08:13:41;5.30;;;1.50;;
72198;SDS011;60103;51.014;16.992;2023-07-16T08:16:10;5.70;;;1.90;;
72198;SDS011;60103;51.014;16.992;2023-07-16T08:18:39;6.20;;;1.70;;
72198;SDS011;60103;51.014;16.992;2023-07-16T08:21:08;6.00;;;1.50;;
72198;SDS011;60103;51.014;16.992;2023-07-16T08:23:37;4.80;;;1.70;;
72198;SDS011;60103;51.014;16.992;2023-07-16T08:26:07;5.60;;;1.60;;
72198;SDS011;60103;51.014;16.992;2023-07-16T08:28:36;4.90;;;1.60;;
72198;SDS011;60103;51.014;16.992;2023-07-16T08:31:06;5.50;;;1.70;;
72198;SDS011;60103;51.014;16.992;2023-07-16T08:33:35;4.80;;;1.40;;
72198;SDS011;60103;51.014;16.992;2023-07-16T08:36:04;6.60;;;1.70;;
72198;SDS011;60103;51.014;16.992;2023-07-16T08:38:33;5.40;;;1.60;;
72198;SDS011;60103;51.014;16.992;2023-07-16T08:41:02;6.10;;;1.90;;
72198;SDS011;60103;51.014;16.992;2023-07-16T08:43:32;5.70;;;2.10;;
72198;SDS011;60103;51.014;16.992;2023-07-16T08:46:02;5.90;;;1.90;;
72198;SDS011;60103;51.014;16.992;2023-07-16T08:48:30;5.00;;;1.40;;
72198;SDS011;60103;51.014;16.992;2023-07-16T08:51:01;5.10;;;1.60;;
72198;SDS011;60103;51.014;16.992;2023-07-16T08:53:31;6.10;;;1.60;;
72198;SDS011;60103;51.014;16.992;2023-07-16T08:56:00;5.90;;;2.00;;
72198;SDS011;60103;51.014;16.992;2023-07-16T08:58:30;5.40;;;1.80;;
72198;SDS011;60103;51.014;16.992;2023-07-16T09:00:59;6.70;;;1.90;;
72198;SDS011;60103;51.014;16.992;2023-07-16T09:03:29;6.80;;;1.70;;
72198;SDS011;60103;51.014;16.992;2023-07-16T09:19:35;8.10;;;1.90;;
72198;SDS011;60103;51.014;16.992;2023-07-16T09:22:05;7.70;;;2.20;;
72198;SDS011;60103;51.014;16.992;2023-07-16T09:24:35;5.40;;;1.90;;
72198;SDS011;60103;51.014;16.992;2023-07-16T09:27:04;6.70;;;2.00;;
72198;SDS011;60103;51.014;16.992;2023-07-16T09:29:37;5.90;;;1.80;;
72198;SDS011;60103;51.014;16.992;2023-07-16T09:32:07;5.60;;;1.90;;
72198;SDS011;60103;51.014;16.992;2023-07-16T09:34:36;5.80;;;2.30;;
72198;SDS011;60103;51.014;16.992;2023-07-16T09:37:05;6.10;;;2.30;;
72198;SDS011;60103;51.014;16.992;2023-07-16T09:39:34;5.90;;;1.90;;
72198;SDS011;60103;51.014;16.992;2023-07-16T09:42:05;7.10;;;2.00;;
72198;SDS011;60103;51.014;16.992;2023-07-16T09:44:34;5.80;;;1.90;;
72198;SDS011;60103;51.014;16.992;2023-07-16T09:47:03;5.50;;;2.10;;
72198;SDS011;60103;51.014;16.992;2023-07-16T09:49:32;5.80;;;2.10;;
72198;SDS011;60103;51.014;16.992;2023-07-16T09:52:01;6.40;;;1.70;;
72198;SDS011;60103;51.014;16.992;2023-07-16T09:54:32;5.70;;;2.10;;
72198;SDS011;60103;51.014;16.992;2023-07-16T09:57:01;6.20;;;2.10;;
72198;SDS011;60103;51.014;16.992;2023-07-16T09:59:31;5.90;;;1.80;;
72198;SDS011;60103;51.014;16.992;2023-07-16T10:02:01;5.60;;;2.00;;
72198;SDS011;60103;51.014;16.992;2023-07-16T10:04:37;5.80;;;1.90;;
72198;SDS011;60103;51.014;16.992;2023-07-16T10:07:20;7.40;;;1.90;;
72198;SDS011;60103;51.014;16.992;2023-07-16T10:09:55;5.50;;;1.80;;
72198;SDS011;60103;51.014;16.992;2023-07-16T10:12:25;6.20;;;2.00;;
72198;SDS011;60103;51.014;16.992;2023-07-16T10:14:56;7.70;;;2.10;;
72198;SDS011;60103;51.014;16.992;2023-07-16T10:17:26;6.90;;;2.30;;
72198;SDS011;60103;51.014;16.992;2023-07-16T10:22:41;7.60;;;2.20;;
72198;SDS011;60103;51.014;16.992;2023-07-16T10:27:49;6.10;;;1.90;;
72198;SDS011;60103;51.014;16.992;2023-07-16T10:30:19;6.40;;;2.20;;
72198;SDS011;60103;51.014;16.992;2023-07-16T10:32:50;6.00;;;1.80;;
72198;SDS011;60103;51.014;16.992;2023-07-16T10:35:20;7.10;;;2.40;;
72198;SDS011;60103;51.014;16.992;2023-07-16T10:37:49;7.60;;;2.10;;
72198;SDS011;60103;51.014;16.992;2023-07-16T10:40:18;6.90;;;2.10;;
72198;SDS011;60103;51.014;16.992;2023-07-16T10:42:47;7.30;;;2.00;;
72198;SDS011;60103;51.014;16.992;2023-07-16T10:45:16;5.70;;;2.20;;
72198;SDS011;60103;51.014;16.992;2023-07-16T10:47:53;6.30;;;2.00;;
72198;SDS011;60103;51.014;16.992;2023-07-16T10:50:23;5.80;;;2.10;;
72198;SDS011;60103;51.014;16.992;2023-07-16T10:52:55;5.70;;;1.70;;
72198;SDS011;60103;51.014;16.992;2023-07-16T10:55:25;6.10;;;2.10;;
72198;SDS011;60103;51.014;16.992;2023-07-16T10:57:56;6.80;;;2.20;;
72198;SDS011;60103;51.014;16.992;2023-07-16T11:00:25;6.60;;;2.00;;
72198;SDS011;60103;51.014;16.992;2023-07-16T11:02:54;6.00;;;2.00;;
72198;SDS011;60103;51.014;16.992;2023-07-16T11:05:23;6.20;;;2.10;;
72198;SDS011;60103;51.014;16.992;2023-07-16T11:07:52;6.50;;;1.90;;
72198;SDS011;60103;51.014;16.992;2023-07-16T11:10:23;6.90;;;2.20;;
72198;SDS011;60103;51.014;16.992;2023-07-16T11:12:53;6.20;;;2.00;;
72198;SDS011;60103;51.014;16.992;2023-07-16T11:15:34;6.80;;;2.40;;
72198;SDS011;60103;51.014;16.992;2023-07-16T11:18:03;5.30;;;1.60;;
72198;SDS011;60103;51.014;16.992;2023-07-16T11:20:32;5.60;;;1.60;;
72198;SDS011;60103;51.014;16.992;2023-07-16T11:23:01;6.00;;;1.90;;
72198;SDS011;60103;51.014;16.992;2023-07-16T11:25:32;5.70;;;1.90;;
72198;SDS011;60103;51.014;16.992;2023-07-16T11:28:01;5.10;;;1.60;;
72198;SDS011;60103;51.014;16.992;2023-07-16T11:30:30;5.10;;;1.60;;
72198;SDS011;60103;51.014;16.992;2023-07-16T11:32:59;5.80;;;1.90;;
72198;SDS011;60103;51.014;16.992;2023-07-16T11:35:28;5.30;;;2.00;;
72198;SDS011;60103;51.014;16.992;2023-07-16T11:37:57;6.20;;;1.90;;
72198;SDS011;60103;51.014;16.992;2023-07-16T11:40:26;5.60;;;1.60;;
72198;SDS011;60103;51.014;16.992;2023-07-16T11:42:55;5.20;;;1.50;;
72198;SDS011;60103;51.014;16.992;2023-07-16T11:45:25;4.90;;;1.40;;
72198;SDS011;60103;51.014;16.992;2023-07-16T11:47:54;4.50;;;1.50;;
72198;SDS011;60103;51.014;16.992;2023-07-16T11:50:23;5.00;;;1.50;;
72198;SDS011;60103;51.014;16.992;2023-07-16T11:52:54;5.10;;;1.70;;
72198;SDS011;60103;51.014;16.992;2023-07-16T11:55:23;5.40;;;1.80;;
72198;SDS011;60103;51.014;16.992;2023-07-16T11:57:52;5.30;;;1.50;;
72198;SDS011;60103;51.014;16.992;2023-07-16T12:00:21;6.40;;;1.90;;
72198;SDS011;60103;51.014;16.992;2023-07-16T12:02:50;5.80;;;1.70;;
72198;SDS011;60103;51.014;16.992;2023-07-16T12:05:22;5.60;;;1.80;;
72198;SDS011;60103;51.014;16.992;2023-07-16T12:08:16;5.20;;;1.50;;
72198;SDS011;60103;51.014;16.992;2023-07-16T12:10:45;5.20;;;1.70;;
72198;SDS011;60103;51.014;16.992;2023-07-16T12:13:14;6.60;;;1.60;;
72198;SDS011;60103;51.014;16.992;2023-07-16T12:15:42;6.80;;;1.60;;
72198;SDS011;60103;51.014;16.992;2023-07-16T12:18:11;4.40;;;1.40;;
72198;SDS011;60103;51.014;16.992;2023-07-16T12:20:40;4.40;;;1.30;;
72198;SDS011;60103;51.014;16.992;2023-07-16T12:23:09;5.90;;;1.60;;
72198;SDS011;60103;51.014;16.992;2023-07-16T12:25:38;5.50;;;1.60;;
72198;SDS011;60103;51.014;16.992;2023-07-16T12:28:07;5.60;;;1.50;;
72198;SDS011;60103;51.014;16.992;2023-07-16T12:30:36;5.60;;;1.70;;
72198;SDS011;60103;51.014;16.992;2023-07-16T12:33:05;4.50;;;1.40;;
72198;SDS011;60103;51.014;16.992;2023-07-16T12:35:34;4.50;;;1.60;;
72198;SDS011;60103;51.014;16.992;2023-07-16T12:38:02;4.60;;;1.30;;
72198;SDS011;60103;51.014;16.992;2023-07-16T12:40:31;4.90;;;1.50;;
72198;SDS011;60103;51.014;16.992;2023-07-16T12:43:00;5.30;;;1.70;;
72198;SDS011;60103;51.014;16.992;2023-07-16T12:45:29;4.90;;;1.70;;
72198;SDS011;60103;51.014;16.992;2023-07-16T12:47:58;5.30;;;1.70;;
72198;SDS011;60103;51.014;16.992;2023-07-16T12:50:27;4.90;;;1.60;;
72198;SDS011;60103;51.014;16.992;2023-07-16T12:52:57;5.00;;;1.60;;
72198;SDS011;60103;51.014;16.992;2023-07-16T12:55:26;5.80;;;1.90;;
72198;SDS011;60103;51.014;16.992;2023-07-16T12:57:54;5.30;;;1.90;;
72198;SDS011;60103;51.014;16.992;2023-07-16T13:00:23;6.50;;;1.90;;
72198;SDS011;60103;51.014;16.992;2023-07-16T13:02:53;5.20;;;1.60;;
72198;SDS011;60103;51.014;16.992;2023-07-16T13:05:23;5.00;;;1.50;;
72198;SDS011;60103;51.014;16.992;2023-07-16T13:07:53;6.70;;;1.60;;
72198;SDS011;60103;51.014;16.992;2023-07-16T13:10:22;5.30;;;2.10;;
72198;SDS011;60103;51.014;16.992;2023-07-16T13:12:52;5.70;;;1.60;;
72198;SDS011;60103;51.014;16.992;2023-07-16T13:15:20;4.80;;;1.60;;
72198;SDS011;60103;51.014;16.992;2023-07-16T13:17:49;5.20;;;1.80;;
72198;SDS011;60103;51.014;16.992;2023-07-16T13:20:18;4.80;;;1.60;;
72198;SDS011;60103;51.014;16.992;2023-07-16T13:22:49;5.30;;;1.90;;
72198;SDS011;60103;51.014;16.992;2023-07-16T13:25:18;5.60;;;1.90;;
72198;SDS011;60103;51.014;16.992;2023-07-16T13:27:48;6.40;;;1.70;;
72198;SDS011;60103;51.014;16.992;2023-07-16T13:30:18;5.30;;;1.90;;
72198;SDS011;60103;51.014;16.992;2023-07-16T13:32:48;6.10;;;1.60;;
72198;SDS011;60103;51.014;16.992;2023-07-16T13:35:19;5.70;;;1.90;;
72198;SDS011;60103;51.014;16.992;2023-07-16T13:37:48;6.10;;;2.00;;
72198;SDS011;60103;51.014;16.992;2023-07-16T13:40:18;5.40;;;2.00;;
72198;SDS011;60103;51.014;16.992;2023-07-16T13:42:49;5.40;;;1.90;;
72198;SDS011;60103;51.014;16.992;2023-07-16T13:45:18;5.60;;;1.80;;
72198;SDS011;60103;51.014;16.992;2023-07-16T13:47:48;5.60;;;1.90;;
72198;SDS011;60103;51.014;16.992;2023-07-16T13:50:20;6.60;;;2.30;;
72198;SDS011;60103;51.014;16.992;2023-07-16T13:52:50;5.10;;;2.00;;
72198;SDS011;60103;51.014;16.992;2023-07-16T13:55:20;5.10;;;1.80;;
72198;SDS011;60103;51.014;16.992;2023-07-16T13:57:50;5.40;;;1.90;;
72198;SDS011;60103;51.014;16.992;2023-07-16T14:00:19;5.20;;;1.80;;
72198;SDS011;60103;51.014;16.992;2023-07-16T14:02:48;5.30;;;2.00;;
72198;SDS011;60103;51.014;16.992;2023-07-16T14:05:18;6.20;;;2.30;;
72198;SDS011;60103;51.014;16.992;2023-07-16T14:07:48;5.10;;;1.80;;
72198;SDS011;60103;51.014;16.992;2023-07-16T14:10:19;5.30;;;2.00;;
72198;SDS011;60103;51.014;16.992;2023-07-16T14:12:48;5.50;;;2.10;;
72198;SDS011;60103;51.014;16.992;2023-07-16T14:15:18;6.50;;;2.00;;
72198;SDS011;60103;51.014;16.992;2023-07-16T14:17:47;5.70;;;2.00;;
72198;SDS011;60103;51.014;16.992;2023-07-16T14:20:17;6.10;;;2.00;;
72198;SDS011;60103;51.014;16.992;2023-07-16T14:22:46;6.80;;;2.00;;
72198;SDS011;60103;51.014;16.992;2023-07-16T14:25:15;6.60;;;1.90;;
72198;SDS011;60103;51.014;16.992;2023-07-16T14:27:45;6.00;;;2.10;;
72198;SDS011;60103;51.014;16.992;2023-07-16T14:30:15;6.00;;;2.10;;
72198;SDS011;60103;51.014;16.992;2023-07-16T14:32:45;5.30;;;2.10;;
72198;SDS011;60103;51.014;16.992;2023-07-16T14:35:15;6.80;;;2.00;;
72198;SDS011;60103;51.014;16.992;2023-07-16T14:37:49;6.00;;;2.30;;
72198;SDS011;60103;51.014;16.992;2023-07-16T14:40:18;5.90;;;2.00;;
72198;SDS011;60103;51.014;16.992;2023-07-16T14:42:48;6.10;;;1.90;;
72198;SDS011;60103;51.014;16.992;2023-07-16T14:45:18;6.90;;;1.90;;
72198;SDS011;60103;51.014;16.992;2023-07-16T14:47:47;6.90;;;2.00;;
72198;SDS011;60103;51.014;16.992;2023-07-16T14:50:17;6.40;;;2.40;;
72198;SDS011;60103;51.014;16.992;2023-07-16T14:52:47;6.40;;;2.50;;
72198;SDS011;60103;51.014;16.992;2023-07-16T14:55:16;6.60;;;2.70;;
72198;SDS011;60103;51.014;16.992;2023-07-16T14:57:45;6.40;;;2.00;;
72198;SDS011;60103;51.014;16.992;2023-07-16T15:00:14;5.60;;;2.10;;
72198;SDS011;60103;51.014;16.992;2023-07-16T15:02:45;7.30;;;2.50;;
72198;SDS011;60103;51.014;16.992;2023-07-16T15:05:15;5.50;;;2.20;;
72198;SDS011;60103;51.014;16.992;2023-07-16T15:07:44;5.00;;;1.80;;
72198;SDS011;60103;51.014;16.992;2023-07-16T15:10:13;6.60;;;2.10;;
72198;SDS011;60103;51.014;16.992;2023-07-16T15:12:43;6.50;;;1.90;;
72198;SDS011;60103;51.014;16.992;2023-07-16T15:15:12;6.70;;;2.20;;
72198;SDS011;60103;51.014;16.992;2023-07-16T15:17:42;5.90;;;2.20;;
72198;SDS011;60103;51.014;16.992;2023-07-16T15:20:11;6.10;;;2.20;;
72198;SDS011;60103;51.014;16.992;2023-07-16T15:22:41;5.20;;;1.80;;
72198;SDS011;60103;51.014;16.992;2023-07-16T15:25:11;5.90;;;2.10;;
72198;SDS011;60103;51.014;16.992;2023-07-16T15:27:41;6.20;;;2.20;;
72198;SDS011;60103;51.014;16.992;2023-07-16T15:30:10;5.70;;;2.00;;
72198;SDS011;60103;51.014;16.992;2023-07-16T15:32:41;6.10;;;2.10;;
72198;SDS011;60103;51.014;16.992;2023-07-16T15:35:11;5.60;;;1.80;;
72198;SDS011;60103;51.014;16.992;2023-07-16T15:37:40;5.50;;;1.80;;
72198;SDS011;60103;51.014;16.992;2023-07-16T15:40:13;5.80;;;2.30;;
72198;SDS011;60103;51.014;16.992;2023-07-16T15:42:43;5.50;;;1.90;;
72198;SDS011;60103;51.014;16.992;2023-07-16T15:45:13;5.80;;;2.40;;
72198;SDS011;60103;51.014;16.992;2023-07-16T15:47:45;6.70;;;2.90;;
72198;SDS011;60103;51.014;16.992;2023-07-16T15:50:14;6.50;;;2.40;;
72198;SDS011;60103;51.014;16.992;2023-07-16T15:52:44;6.30;;;2.10;;
72198;SDS011;60103;51.014;16.992;2023-07-16T15:55:13;5.90;;;2.20;;
72198;SDS011;60103;51.014;16.992;2023-07-16T15:57:42;7.10;;;2.10;;
72198;SDS011;60103;51.014;16.992;2023-07-16T16:00:13;6.40;;;2.40;;
72198;SDS011;60103;51.014;16.992;2023-07-16T16:02:45;5.50;;;2.00;;
72198;SDS011;60103;51.014;16.992;2023-07-16T16:05:15;5.70;;;2.10;;
72198;SDS011;60103;51.014;16.992;2023-07-16T16:10:39;6.20;;;2.20;;
72198;SDS011;60103;51.014;16.992;2023-07-16T16:13:09;6.90;;;2.30;;
72198;SDS011;60103;51.014;16.992;2023-07-16T16:15:39;6.50;;;2.30;;
72198;SDS011;60103;51.014;16.992;2023-07-16T16:18:09;5.90;;;2.10;;
72198;SDS011;60103;51.014;16.992;2023-07-16T16:20:43;6.80;;;2.30;;
72198;SDS011;60103;51.014;16.992;2023-07-16T16:23:13;7.50;;;2.20;;
72198;SDS011;60103;51.014;16.992;2023-07-16T16:25:43;6.20;;;2.40;;
72198;SDS011;60103;51.014;16.992;2023-07-16T16:28:12;5.60;;;2.00;;
72198;SDS011;60103;51.014;16.992;2023-07-16T16:30:41;5.60;;;2.00;;
72198;SDS011;60103;51.014;16.992;2023-07-16T16:33:11;5.60;;;2.10;;
72198;SDS011;60103;51.014;16.992;2023-07-16T16:35:40;5.20;;;1.80;;
72198;SDS011;60103;51.014;16.992;2023-07-16T16:38:11;5.30;;;1.80;;
72198;SDS011;60103;51.014;16.992;2023-07-16T16:40:41;7.90;;;2.30;;
72198;SDS011;60103;51.014;16.992;2023-07-16T16:43:11;8.20;;;2.30;;
72198;SDS011;60103;51.014;16.992;2023-07-16T16:45:41;5.60;;;2.10;;
72198;SDS011;60103;51.014;16.992;2023-07-16T16:48:10;5.90;;;2.00;;
72198;SDS011;60103;51.014;16.992;2023-07-16T16:50:40;5.60;;;2.10;;
72198;SDS011;60103;51.014;16.992;2023-07-16T16:53:09;4.90;;;1.70;;
72198;SDS011;60103;51.014;16.992;2023-07-16T16:55:39;6.60;;;2.10;;
72198;SDS011;60103;51.014;16.992;2023-07-16T16:58:08;6.10;;;2.20;;
72198;SDS011;60103;51.014;16.992;2023-07-16T17:00:38;5.60;;;2.10;;
72198;SDS011;60103;51.014;16.992;2023-07-16T17:03:07;6.10;;;1.80;;
72198;SDS011;60103;51.014;16.992;2023-07-16T17:05:37;6.60;;;1.90;;
72198;SDS011;60103;51.014;16.992;2023-07-16T17:08:06;6.00;;;2.30;;
72198;SDS011;60103;51.014;16.992;2023-07-16T17:10:36;6.40;;;2.10;;
72198;SDS011;60103;51.014;16.992;2023-07-16T17:13:05;6.50;;;1.90;;
72198;SDS011;60103;51.014;16.992;2023-07-16T17:15:34;5.10;;;2.00;;
72198;SDS011;60103;51.014;16.992;2023-07-16T17:18:04;6.00;;;2.10;;